createdAt,value
2019-01-21T00:00:49.687Z,1017.22
2019-01-21T00:01:49.634Z,1017.24
2019-01-21T00:02:49.625Z,1017.25
2019-01-21T00:03:49.613Z,1017.29
2019-01-21T00:04:49.601Z,1017.26
2019-01-21T00:05:49.589Z,1017.24
2019-01-21T00:06:49.580Z,1017.27
2019-01-21T00:07:49.574Z,1017.25
2019-01-21T00:08:49.561Z,1017.23
2019-01-21T00:09:49.551Z,1017.23
2019-01-21T00:10:49.541Z,1017.19
2019-01-21T00:11:49.528Z,1017.21
2019-01-21T00:12:49.520Z,1017.18
2019-01-21T00:13:49.508Z,1017.12
2019-01-21T00:14:49.498Z,1017.16
2019-01-21T00:15:49.571Z,1017.12
2019-01-21T00:16:49.476Z,1017.12
2019-01-21T00:17:49.468Z,1017.14
2019-01-21T00:18:49.458Z,1017.13
2019-01-21T00:19:49.448Z,1017.12
2019-01-21T00:20:49.433Z,1017.15
2019-01-21T00:21:49.418Z,1017.12
2019-01-21T00:22:49.414Z,1017.11
2019-01-21T00:23:49.397Z,1017.12
2019-01-21T00:24:49.392Z,1017.09
2019-01-21T00:25:49.388Z,1017.11
2019-01-21T00:26:49.375Z,1017.11
2019-01-21T00:27:49.358Z,1017.06
2019-01-21T00:28:49.365Z,1017.08
2019-01-21T00:29:49.339Z,1017.05
2019-01-21T00:30:49.334Z,1017.12
2019-01-21T00:31:49.315Z,1017.11
2019-01-21T00:32:49.308Z,1017.12
2019-01-21T00:33:49.300Z,1017.07
2019-01-21T00:34:49.292Z,1017.08
2019-01-21T00:35:49.293Z,1017.07
2019-01-21T00:36:49.269Z,1017.09
2019-01-21T00:37:49.258Z,1017.09
2019-01-21T00:38:49.244Z,1017.14
2019-01-21T00:39:49.230Z,1017.10
2019-01-21T00:40:49.226Z,1017.09
2019-01-21T00:41:49.215Z,1017.10
2019-01-21T00:42:49.200Z,1017.11
2019-01-21T00:43:49.190Z,1017.06
2019-01-21T00:44:49.183Z,1017.09
2019-01-21T00:45:49.176Z,1017.05
2019-01-21T00:46:49.164Z,1017.08
2019-01-21T00:47:49.158Z,1017.08
2019-01-21T00:48:49.147Z,1017.08
2019-01-21T00:49:49.129Z,1017.08
2019-01-21T00:50:49.122Z,1017.07
2019-01-21T00:51:49.110Z,1017.07
2019-01-21T00:52:49.097Z,1017.09
2019-01-21T00:53:49.092Z,1017.06
2019-01-21T00:54:49.073Z,1017.08
2019-01-21T00:55:49.069Z,1017.06
2019-01-21T00:56:49.058Z,1017.05
2019-01-21T00:57:49.046Z,1017.07
2019-01-21T00:58:49.037Z,1017.11
2019-01-21T00:59:49.025Z,1017.06
2019-01-21T01:00:49.018Z,1017.07
2019-01-21T01:01:49.000Z,1017.07
2019-01-21T01:02:48.993Z,1017.03
2019-01-21T01:03:48.988Z,1017.12
2019-01-21T01:04:48.970Z,1017.08
2019-01-21T01:05:48.962Z,1017.06
2019-01-21T01:06:48.948Z,1017.08
2019-01-21T01:07:48.940Z,1017.08
2019-01-21T01:08:48.928Z,1017.09
2019-01-21T01:09:48.922Z,1017.08
2019-01-21T01:10:48.911Z,1017.08
2019-01-21T01:11:48.899Z,1017.10
2019-01-21T01:12:48.887Z,1017.14
2019-01-21T01:13:48.879Z,1017.13
2019-01-21T01:14:48.864Z,1017.14
2019-01-21T01:15:48.873Z,1017.16
2019-01-21T01:16:48.849Z,1017.16
2019-01-21T01:17:48.839Z,1017.17
2019-01-21T01:18:48.826Z,1017.14
2019-01-21T01:19:48.815Z,1017.15
2019-01-21T01:20:48.806Z,1017.19
2019-01-21T01:21:48.792Z,1017.19
2019-01-21T01:22:48.798Z,1017.22
2019-01-21T01:23:48.770Z,1017.20
2019-01-21T01:24:48.764Z,1017.21
2019-01-21T01:25:48.754Z,1017.18
2019-01-21T01:26:48.740Z,1017.17
2019-01-21T01:27:48.736Z,1017.20
2019-01-21T01:28:48.721Z,1017.17
2019-01-21T01:29:48.708Z,1017.22
2019-01-21T01:30:48.698Z,1017.19
2019-01-21T01:31:48.692Z,1017.17
2019-01-21T01:32:48.674Z,1017.21
2019-01-21T01:33:48.668Z,1017.19
2019-01-21T01:34:48.658Z,1017.17
2019-01-21T01:35:48.651Z,1017.15
2019-01-21T01:36:48.634Z,1017.18
2019-01-21T01:37:48.622Z,1017.17
2019-01-21T01:38:48.635Z,1017.23
2019-01-21T01:39:48.616Z,1017.23
2019-01-21T01:40:48.598Z,1017.19
2019-01-21T01:41:48.590Z,1017.20
2019-01-21T01:42:48.576Z,1017.19
2019-01-21T01:43:48.562Z,1017.21
2019-01-21T01:44:48.552Z,1017.20
2019-01-21T01:45:48.553Z,1017.20
2019-01-21T01:46:48.530Z,1017.15
2019-01-21T01:47:48.526Z,1017.17
2019-01-21T01:48:48.517Z,1017.20
2019-01-21T01:49:48.499Z,1017.20
2019-01-21T01:50:48.493Z,1017.20
2019-01-21T01:51:48.475Z,1017.16
2019-01-21T01:52:48.472Z,1017.12
2019-01-21T01:53:48.454Z,1017.15
2019-01-21T01:54:48.455Z,1017.19
2019-01-21T01:55:48.440Z,1017.27
2019-01-21T01:56:48.424Z,1017.24
2019-01-21T01:57:48.418Z,1017.21
2019-01-21T01:58:48.404Z,1017.27
2019-01-21T01:59:48.394Z,1017.20
2019-01-21T02:00:48.388Z,1017.24
2019-01-21T02:01:48.376Z,1017.22
2019-01-21T02:02:48.360Z,1017.24
2019-01-21T02:03:48.356Z,1017.18
2019-01-21T02:04:48.344Z,1017.27
2019-01-21T02:05:48.328Z,1017.20
2019-01-21T02:06:48.316Z,1017.16
2019-01-21T02:07:48.312Z,1017.18
2019-01-21T02:08:48.298Z,1017.26
2019-01-21T02:09:48.282Z,1017.26
2019-01-21T02:10:48.276Z,1017.19
2019-01-21T02:11:48.266Z,1017.23
2019-01-21T02:12:48.280Z,1017.29
2019-01-21T02:13:48.246Z,1017.21
2019-01-21T02:14:48.243Z,1017.29
2019-01-21T02:15:48.238Z,1017.26
2019-01-21T02:16:48.213Z,1017.23
2019-01-21T02:17:52.232Z,1017.26
2019-01-21T02:18:48.186Z,1017.27
2019-01-21T02:19:48.184Z,1017.27
2019-01-21T02:20:48.174Z,1017.28
2019-01-21T02:21:48.174Z,1017.22
2019-01-21T02:22:48.150Z,1017.26
2019-01-21T02:23:48.142Z,1017.29
2019-01-21T02:24:48.132Z,1017.27
2019-01-21T02:25:48.118Z,1017.26
2019-01-21T02:26:48.120Z,1017.29
2019-01-21T02:27:48.100Z,1017.29
2019-01-21T02:28:48.095Z,1017.25
2019-01-21T02:29:48.073Z,1017.26
2019-01-21T02:30:48.071Z,1017.28
2019-01-21T02:31:48.056Z,1017.24
2019-01-21T02:32:48.073Z,1017.25
2019-01-21T02:33:48.036Z,1017.26
2019-01-21T02:34:48.026Z,1017.26
2019-01-21T02:35:48.018Z,1017.21
2019-01-21T02:36:48.004Z,1017.19
2019-01-21T02:37:47.992Z,1017.15
2019-01-21T02:38:47.987Z,1017.18
2019-01-21T02:39:47.995Z,1017.08
2019-01-21T02:40:48.008Z,1017.09
2019-01-21T02:41:47.949Z,1017.15
2019-01-21T02:42:47.946Z,1017.11
2019-01-21T02:43:47.936Z,1017.13
2019-01-21T02:44:47.917Z,1017.07
2019-01-21T02:45:47.910Z,1017.03
2019-01-21T02:46:47.903Z,1017.07
2019-01-21T02:47:47.894Z,1017.07
2019-01-21T02:48:47.878Z,1017.03
2019-01-21T02:49:47.868Z,1017.08
2019-01-21T02:50:47.862Z,1017.05
2019-01-21T02:51:47.847Z,1017.02
2019-01-21T02:52:47.842Z,1017.01
2019-01-21T02:53:47.826Z,1017.04
2019-01-21T02:54:47.818Z,1016.99
2019-01-21T02:55:47.812Z,1016.98
2019-01-21T02:56:47.796Z,1017.02
2019-01-21T02:57:47.782Z,1016.98
2019-01-21T02:58:47.771Z,1017.00
2019-01-21T02:59:47.762Z,1017.02
2019-01-21T03:00:47.750Z,1016.99
2019-01-21T03:01:47.743Z,1016.99
2019-01-21T03:02:47.737Z,1017.04
2019-01-21T03:03:47.716Z,1017.04
2019-01-21T03:04:47.718Z,1017.03
2019-01-21T03:05:47.694Z,1017.03
2019-01-21T03:06:47.689Z,1017.05
2019-01-21T03:07:47.677Z,1016.99
2019-01-21T03:08:47.667Z,1017.01
2019-01-21T03:09:47.660Z,1017.02
2019-01-21T03:10:47.647Z,1017.00
2019-01-21T03:11:47.638Z,1016.98
2019-01-21T03:12:47.637Z,1016.98
2019-01-21T03:13:47.618Z,1016.99
2019-01-21T03:14:47.611Z,1016.98
2019-01-21T03:15:47.594Z,1016.97
2019-01-21T03:16:47.588Z,1017.00
2019-01-21T03:17:47.580Z,1016.95
2019-01-21T03:18:47.566Z,1016.98
2019-01-21T03:19:47.550Z,1017.03
2019-01-21T03:20:47.543Z,1017.02
2019-01-21T03:21:47.534Z,1017.04
2019-01-21T03:22:47.522Z,1017.03
2019-01-21T03:23:47.511Z,1017.01
2019-01-21T03:24:47.509Z,1017.07
2019-01-21T03:25:47.488Z,1017.01
2019-01-21T03:26:47.478Z,1016.97
2019-01-21T03:27:47.468Z,1017.04
2019-01-21T03:28:47.465Z,1017.03
2019-01-21T03:29:47.443Z,1017.09
2019-01-21T03:30:47.453Z,1017.07
2019-01-21T03:31:47.430Z,1017.07
2019-01-21T03:32:47.420Z,1017.05
2019-01-21T03:33:47.419Z,1017.06
2019-01-21T03:34:47.396Z,1017.06
2019-01-21T03:35:47.392Z,1017.05
2019-01-21T03:36:47.393Z,1017.08
2019-01-21T03:37:47.362Z,1017.08
2019-01-21T03:38:47.352Z,1017.03
2019-01-21T03:39:47.345Z,1017.05
2019-01-21T03:40:47.327Z,1017.03
2019-01-21T03:41:47.322Z,1017.05
2019-01-21T03:42:47.309Z,1017.06
2019-01-21T03:43:47.306Z,1017.05
2019-01-21T03:44:47.292Z,1017.02
2019-01-21T03:45:47.288Z,1017.07
2019-01-21T03:46:47.270Z,1017.07
2019-01-21T03:47:47.258Z,1017.08
2019-01-21T03:48:47.250Z,1017.11
2019-01-21T03:49:47.238Z,1017.12
2019-01-21T03:50:47.229Z,1017.12
2019-01-21T03:51:47.223Z,1017.11
2019-01-21T03:52:47.212Z,1017.15
2019-01-21T03:53:47.196Z,1017.12
2019-01-21T03:54:47.183Z,1017.14
2019-01-21T03:55:47.177Z,1017.16
2019-01-21T03:56:47.162Z,1017.12
2019-01-21T03:57:47.183Z,1017.10
2019-01-21T03:58:47.150Z,1017.10
2019-01-21T03:59:47.146Z,1017.07
2019-01-21T04:00:47.126Z,1017.06
2019-01-21T04:01:47.116Z,1016.99
2019-01-21T04:02:47.106Z,1017.02
2019-01-21T04:03:47.095Z,1017.01
2019-01-21T04:04:47.086Z,1017.02
2019-01-21T04:05:47.071Z,1016.99
2019-01-21T04:06:47.062Z,1017.02
2019-01-21T04:07:47.049Z,1017.02
2019-01-21T04:08:47.051Z,1017.04
2019-01-21T04:09:47.035Z,1017.01
2019-01-21T04:10:47.019Z,1016.96
2019-01-21T04:11:47.019Z,1016.97
2019-01-21T04:12:47.005Z,1016.98
2019-01-21T04:14:07.995Z,1016.96
2019-01-21T04:14:46.975Z,1016.99
2019-01-21T04:15:46.965Z,1016.97
2019-01-21T04:16:46.956Z,1016.90
2019-01-21T04:17:46.952Z,1016.94
2019-01-21T04:18:46.939Z,1016.90
2019-01-21T04:19:46.929Z,1016.91
2019-01-21T04:20:46.912Z,1016.88
2019-01-21T04:21:46.910Z,1016.84
2019-01-21T04:22:46.891Z,1016.82
2019-01-21T04:23:46.887Z,1016.84
2019-01-21T04:24:46.871Z,1016.84
2019-01-21T04:25:46.867Z,1016.84
2019-01-21T04:26:46.869Z,1016.82
2019-01-21T04:27:46.879Z,1016.81
2019-01-21T04:28:46.839Z,1016.83
2019-01-21T04:29:46.826Z,1016.85
2019-01-21T04:30:46.813Z,1016.82
2019-01-21T04:31:46.801Z,1016.85
2019-01-21T04:32:46.795Z,1016.83
2019-01-21T04:33:46.779Z,1016.83
2019-01-21T04:34:46.767Z,1016.77
2019-01-21T04:35:46.762Z,1016.77
2019-01-21T04:36:46.755Z,1016.74
2019-01-21T04:37:46.738Z,1016.75
2019-01-21T04:38:46.735Z,1016.75
2019-01-21T04:39:46.721Z,1016.78
2019-01-21T04:40:46.711Z,1016.76
2019-01-21T04:41:46.703Z,1016.74
2019-01-21T04:42:46.691Z,1016.77
2019-01-21T04:43:46.677Z,1016.72
2019-01-21T04:44:46.667Z,1016.71
2019-01-21T04:45:46.668Z,1016.72
2019-01-21T04:46:46.646Z,1016.72
2019-01-21T04:47:46.638Z,1016.73
2019-01-21T04:48:46.619Z,1016.68
2019-01-21T04:49:46.612Z,1016.67
2019-01-21T04:50:46.602Z,1016.65
2019-01-21T04:51:46.598Z,1016.68
2019-01-21T04:52:46.594Z,1016.70
2019-01-21T04:53:46.581Z,1016.66
2019-01-21T04:54:46.576Z,1016.74
2019-01-21T04:55:46.585Z,1016.72
2019-01-21T04:56:46.542Z,1016.75
2019-01-21T04:57:46.526Z,1016.70
2019-01-21T04:58:47.256Z,1016.71
2019-01-21T04:59:46.517Z,1016.71
2019-01-21T05:00:46.500Z,1016.65
2019-01-21T05:01:46.512Z,1016.68
2019-01-21T05:02:46.479Z,1016.70
2019-01-21T05:03:46.467Z,1016.68
2019-01-21T05:04:46.454Z,1016.64
2019-01-21T05:05:46.443Z,1016.73
2019-01-21T05:06:46.444Z,1016.64
2019-01-21T05:07:46.433Z,1016.63
2019-01-21T05:08:46.416Z,1016.69
2019-01-21T05:09:46.412Z,1016.71
2019-01-21T05:10:46.393Z,1016.66
2019-01-21T05:11:46.387Z,1016.68
2019-01-21T05:12:46.369Z,1016.64
2019-01-21T05:13:46.365Z,1016.63
2019-01-21T05:14:46.350Z,1016.61
2019-01-21T05:15:46.340Z,1016.67
2019-01-21T05:16:46.335Z,1016.64
2019-01-21T05:17:46.324Z,1016.64
2019-01-21T05:18:46.319Z,1016.65
2019-01-21T05:19:46.302Z,1016.69
2019-01-21T05:20:46.287Z,1016.62
2019-01-21T05:21:46.284Z,1016.64
2019-01-21T05:22:46.280Z,1016.63
2019-01-21T05:23:46.260Z,1016.60
2019-01-21T05:24:46.248Z,1016.60
2019-01-21T05:25:46.238Z,1016.62
2019-01-21T05:26:46.228Z,1016.65
2019-01-21T05:27:46.217Z,1016.63
2019-01-21T05:28:46.213Z,1016.63
2019-01-21T05:29:46.200Z,1016.64
2019-01-21T05:30:46.189Z,1016.63
2019-01-21T05:31:46.174Z,1016.67
2019-01-21T05:32:46.167Z,1016.68
2019-01-21T05:33:46.151Z,1016.67
2019-01-21T05:34:46.144Z,1016.62
2019-01-21T05:35:46.132Z,1016.65
2019-01-21T05:36:46.130Z,1016.66
2019-01-21T05:37:46.115Z,1016.63
2019-01-21T05:38:46.119Z,1016.62
2019-01-21T05:39:46.092Z,1016.67
2019-01-21T05:40:46.081Z,1016.65
2019-01-21T05:41:46.072Z,1016.63
2019-01-21T05:42:46.059Z,1016.61
2019-01-21T05:43:46.046Z,1016.64
2019-01-21T05:44:46.048Z,1016.64
2019-01-21T05:45:46.044Z,1016.60
2019-01-21T05:46:46.018Z,1016.63
2019-01-21T05:47:46.011Z,1016.61
2019-01-21T05:48:49.065Z,1016.63
2019-01-21T05:49:45.996Z,1016.64
2019-01-21T05:50:45.976Z,1016.61
2019-01-21T05:51:45.965Z,1016.63
2019-01-21T05:52:45.966Z,1016.65
2019-01-21T05:53:45.948Z,1016.68
2019-01-21T05:54:45.940Z,1016.69
2019-01-21T05:55:45.926Z,1016.69
2019-01-21T05:56:45.919Z,1016.71
2019-01-21T05:57:45.905Z,1016.68
2019-01-21T05:58:45.916Z,1016.64
2019-01-21T05:59:45.888Z,1016.71
2019-01-21T06:00:45.887Z,1016.69
2019-01-21T06:01:45.871Z,1016.67
2019-01-21T06:02:45.856Z,1016.69
2019-01-21T06:03:45.840Z,1016.71
2019-01-21T06:04:45.832Z,1016.74
2019-01-21T06:05:45.824Z,1016.67
2019-01-21T06:06:45.817Z,1016.68
2019-01-21T06:07:45.814Z,1016.69
2019-01-21T06:08:45.790Z,1016.68
2019-01-21T06:09:45.785Z,1016.71
2019-01-21T06:10:45.770Z,1016.66
2019-01-21T06:11:45.759Z,1016.65
2019-01-21T06:12:45.752Z,1016.61
2019-01-21T06:13:45.742Z,1016.65
2019-01-21T06:14:45.745Z,1016.63
2019-01-21T06:15:45.721Z,1016.63
2019-01-21T06:16:45.727Z,1016.62
2019-01-21T06:17:45.698Z,1016.62
2019-01-21T06:18:45.690Z,1016.65
2019-01-21T06:19:45.681Z,1016.63
2019-01-21T06:20:45.670Z,1016.68
2019-01-21T06:21:45.659Z,1016.65
2019-01-21T06:22:45.679Z,1016.66
2019-01-21T06:23:45.638Z,1016.65
2019-01-21T06:24:45.626Z,1016.68
2019-01-21T06:25:45.618Z,1016.67
2019-01-21T06:26:45.607Z,1016.65
2019-01-21T06:27:45.600Z,1016.67
2019-01-21T06:28:45.596Z,1016.66
2019-01-21T06:29:45.578Z,1016.69
2019-01-21T06:30:45.562Z,1016.69
2019-01-21T06:31:45.552Z,1016.72
2019-01-21T06:32:45.538Z,1016.74
2019-01-21T06:33:45.536Z,1016.74
2019-01-21T06:34:45.520Z,1016.78
2019-01-21T06:35:45.510Z,1016.74
2019-01-21T06:36:45.509Z,1016.72
2019-01-21T06:37:45.494Z,1016.76
2019-01-21T06:38:45.484Z,1016.76
2019-01-21T06:39:45.479Z,1016.73
2019-01-21T06:40:45.478Z,1016.81
2019-01-21T06:41:45.452Z,1016.77
2019-01-21T06:42:45.438Z,1016.81
2019-01-21T06:43:45.430Z,1016.83
2019-01-21T06:44:45.421Z,1016.85
2019-01-21T06:45:45.407Z,1016.87
2019-01-21T06:46:45.400Z,1016.87
2019-01-21T06:47:45.384Z,1016.89
2019-01-21T06:48:45.382Z,1016.89
2019-01-21T06:49:45.366Z,1016.89
2019-01-21T06:50:45.356Z,1016.90
2019-01-21T06:51:45.346Z,1016.87
2019-01-21T06:52:45.340Z,1016.82
2019-01-21T06:53:45.322Z,1016.87
2019-01-21T06:54:45.316Z,1016.84
2019-01-21T06:55:45.312Z,1016.79
2019-01-21T06:56:47.520Z,1016.78
2019-01-21T06:57:45.281Z,1016.84
2019-01-21T06:58:45.272Z,1016.84
2019-01-21T06:59:45.280Z,1016.85
2019-01-21T07:00:45.248Z,1016.89
2019-01-21T07:01:45.240Z,1016.88
2019-01-21T07:02:45.230Z,1016.94
2019-01-21T07:03:45.222Z,1016.92
2019-01-21T07:04:45.210Z,1016.92
2019-01-21T07:05:45.200Z,1016.89
2019-01-21T07:06:45.193Z,1016.93
2019-01-21T07:07:45.179Z,1016.92
2019-01-21T07:08:45.170Z,1016.95
2019-01-21T07:09:45.159Z,1016.94
2019-01-21T07:10:45.146Z,1016.95
2019-01-21T07:11:45.140Z,1016.98
2019-01-21T07:12:45.124Z,1016.92
2019-01-21T07:13:45.114Z,1016.91
2019-01-21T07:14:45.112Z,1016.91
2019-01-21T07:15:45.095Z,1016.93
2019-01-21T07:16:45.081Z,1016.91
2019-01-21T07:17:45.082Z,1016.95
2019-01-21T07:18:45.062Z,1016.92
2019-01-21T07:19:46.283Z,1016.88
2019-01-21T07:20:45.048Z,1016.86
2019-01-21T07:21:45.035Z,1016.88
2019-01-21T07:22:45.016Z,1016.85
2019-01-21T07:23:45.013Z,1016.86
2019-01-21T07:24:45.004Z,1016.93
2019-01-21T07:25:44.988Z,1016.96
2019-01-21T07:26:44.977Z,1016.96
2019-01-21T07:27:44.974Z,1016.95
2019-01-21T07:28:44.958Z,1017.00
2019-01-21T07:29:44.948Z,1016.97
2019-01-21T07:30:44.941Z,1016.97
2019-01-21T07:31:44.930Z,1017.01
2019-01-21T07:32:44.925Z,1016.98
2019-01-21T07:33:44.904Z,1016.88
2019-01-21T07:34:44.892Z,1016.92
2019-01-21T07:35:44.887Z,1016.92
2019-01-21T07:36:44.888Z,1016.93
2019-01-21T07:37:44.860Z,1016.97
2019-01-21T07:38:44.852Z,1016.99
2019-01-21T07:39:44.844Z,1016.97
2019-01-21T07:40:44.840Z,1016.91
2019-01-21T07:41:44.816Z,1016.92
2019-01-21T07:42:44.819Z,1016.93
2019-01-21T07:43:44.828Z,1016.91
2019-01-21T07:44:44.791Z,1016.95
2019-01-21T07:45:44.778Z,1016.91
2019-01-21T07:46:44.773Z,1016.90
2019-01-21T07:47:44.797Z,1016.87
2019-01-21T07:48:44.754Z,1016.85
2019-01-21T07:49:44.734Z,1016.90
2019-01-21T07:50:44.726Z,1016.87
2019-01-21T07:51:44.714Z,1016.91
2019-01-21T07:52:44.712Z,1016.88
2019-01-21T07:53:44.695Z,1016.90
2019-01-21T07:54:44.684Z,1016.94
2019-01-21T07:55:44.694Z,1016.94
2019-01-21T07:56:44.663Z,1016.90
2019-01-21T07:57:44.653Z,1016.95
2019-01-21T07:58:44.640Z,1016.94
2019-01-21T07:59:44.636Z,1016.92
2019-01-21T08:00:44.620Z,1016.95
2019-01-21T08:01:44.628Z,1016.96
2019-01-21T08:02:44.600Z,1016.95
2019-01-21T08:03:44.589Z,1016.89
2019-01-21T08:04:44.580Z,1016.94
2019-01-21T08:05:44.566Z,1016.92
2019-01-21T08:06:45.440Z,1016.91
2019-01-21T08:07:44.559Z,1016.93
2019-01-21T08:08:44.538Z,1016.94
2019-01-21T08:09:44.532Z,1016.96
2019-01-21T08:10:44.514Z,1016.93
2019-01-21T08:11:44.510Z,1016.93
2019-01-21T08:12:44.501Z,1016.98
2019-01-21T08:13:44.480Z,1016.95
2019-01-21T08:14:44.474Z,1016.94
2019-01-21T08:15:44.466Z,1016.94
2019-01-21T08:16:44.460Z,1016.96
2019-01-21T08:17:44.472Z,1016.93
2019-01-21T08:18:44.430Z,1016.98
2019-01-21T08:19:44.421Z,1016.95
2019-01-21T08:20:44.412Z,1016.91
2019-01-21T08:21:44.404Z,1016.93
2019-01-21T08:22:44.395Z,1016.91
2019-01-21T08:23:44.382Z,1016.95
2019-01-21T08:24:44.373Z,1016.97
2019-01-21T08:25:44.360Z,1016.96
2019-01-21T08:26:44.349Z,1016.99
2019-01-21T08:27:44.338Z,1016.97
2019-01-21T08:28:44.335Z,1017.01
2019-01-21T08:29:44.314Z,1016.97
2019-01-21T08:30:44.304Z,1016.97
2019-01-21T08:31:44.300Z,1016.98
2019-01-21T08:32:44.296Z,1016.98
2019-01-21T08:33:44.272Z,1016.95
2019-01-21T08:34:44.271Z,1016.97
2019-01-21T08:35:44.265Z,1016.96
2019-01-21T08:36:44.242Z,1016.94
2019-01-21T08:37:44.234Z,1016.95
2019-01-21T08:38:44.228Z,1016.99
2019-01-21T08:39:44.220Z,1017.02
2019-01-21T08:40:44.208Z,1016.99
2019-01-21T08:41:44.855Z,1016.97
2019-01-21T08:42:44.192Z,1016.92
2019-01-21T08:43:44.174Z,1016.94
2019-01-21T08:44:44.160Z,1016.94
2019-01-21T08:45:44.146Z,1016.97
2019-01-21T08:46:44.135Z,1016.98
2019-01-21T08:47:44.126Z,1016.97
2019-01-21T08:48:44.124Z,1016.93
2019-01-21T08:49:44.108Z,1016.92
2019-01-21T08:50:44.098Z,1016.93
2019-01-21T08:51:44.089Z,1016.96
2019-01-21T08:52:44.082Z,1016.99
2019-01-21T08:53:44.067Z,1017.04
2019-01-21T08:54:44.056Z,1017.06
2019-01-21T08:55:44.044Z,1017.07
2019-01-21T08:56:44.040Z,1017.05
2019-01-21T08:57:44.028Z,1017.04
2019-01-21T08:58:44.015Z,1017.05
2019-01-21T08:59:44.010Z,1017.08
2019-01-21T09:00:43.995Z,1017.03
2019-01-21T09:01:43.983Z,1017.03
2019-01-21T09:02:43.970Z,1017.05
2019-01-21T09:03:43.963Z,1017.01
2019-01-21T09:04:43.956Z,1017.12
2019-01-21T09:05:43.936Z,1017.12
2019-01-21T09:06:43.930Z,1017.08
2019-01-21T09:07:43.919Z,1017.09
2019-01-21T09:08:43.912Z,1017.11
2019-01-21T09:09:58.786Z,1017.09
2019-01-21T09:10:43.889Z,1017.07
2019-01-21T09:11:43.880Z,1017.14
2019-01-21T09:12:43.865Z,1017.11
2019-01-21T09:13:43.866Z,1017.14
2019-01-21T09:14:43.846Z,1017.14
2019-01-21T09:15:43.832Z,1017.11
2019-01-21T09:16:43.824Z,1017.16
2019-01-21T09:17:43.815Z,1017.09
2019-01-21T09:18:43.806Z,1017.09
2019-01-21T09:19:43.794Z,1017.06
2019-01-21T09:20:43.782Z,1017.05
2019-01-21T09:21:43.780Z,1017.03
2019-01-21T09:22:43.764Z,1017.08
2019-01-21T09:23:43.749Z,1017.08
2019-01-21T09:24:43.740Z,1017.06
2019-01-21T09:25:43.733Z,1017.12
2019-01-21T09:26:43.730Z,1017.17
2019-01-21T09:27:43.714Z,1017.15
2019-01-21T09:28:43.698Z,1017.15
2019-01-21T09:29:43.688Z,1017.16
2019-01-21T09:30:43.680Z,1017.16
2019-01-21T09:31:43.667Z,1017.17
2019-01-21T09:32:43.656Z,1017.14
2019-01-21T09:33:43.646Z,1017.16
2019-01-21T09:34:43.650Z,1017.16
2019-01-21T09:35:43.624Z,1017.22
2019-01-21T09:36:43.612Z,1017.09
2019-01-21T09:37:43.605Z,1017.11
2019-01-21T09:38:43.599Z,1017.16
2019-01-21T09:39:43.596Z,1017.12
2019-01-21T09:40:43.569Z,1017.15
2019-01-21T09:41:43.579Z,1017.14
2019-01-21T09:42:43.554Z,1017.11
2019-01-21T09:43:43.542Z,1017.08
2019-01-21T09:44:43.533Z,1017.09
2019-01-21T09:45:43.525Z,1017.10
2019-01-21T09:46:43.516Z,1017.11
2019-01-21T09:47:43.500Z,1017.12
2019-01-21T09:48:43.500Z,1017.10
2019-01-21T09:49:43.906Z,1017.15
2019-01-21T09:50:43.470Z,1017.08
2019-01-21T09:51:43.470Z,1017.11
2019-01-21T09:52:43.474Z,1017.09
2019-01-21T09:53:43.442Z,1017.04
2019-01-21T09:54:43.429Z,1017.08
2019-01-21T09:55:43.425Z,1017.04
2019-01-21T09:56:43.416Z,1017.06
2019-01-21T09:57:43.401Z,1017.03
2019-01-21T09:58:43.413Z,1017.08
2019-01-21T09:59:43.376Z,1017.06
2019-01-21T10:00:43.366Z,1017.09
2019-01-21T10:01:43.364Z,1017.06
2019-01-21T10:02:43.348Z,1017.11
2019-01-21T10:03:43.336Z,1017.12
2019-01-21T10:04:43.330Z,1017.10
2019-01-21T10:05:43.310Z,1017.10
2019-01-21T10:06:43.308Z,1017.11
2019-01-21T10:07:43.292Z,1017.06
2019-01-21T10:08:43.287Z,1016.94
2019-01-21T10:09:43.274Z,1017.03
2019-01-21T10:10:43.261Z,1016.90
2019-01-21T10:11:43.252Z,1016.94
2019-01-21T10:12:43.257Z,1016.93
2019-01-21T10:13:43.231Z,1016.93
2019-01-21T10:14:43.220Z,1016.86
2019-01-21T10:15:43.217Z,1016.89
2019-01-21T10:16:43.204Z,1016.80
2019-01-21T10:17:43.223Z,1016.76
2019-01-21T10:18:43.182Z,1016.75
2019-01-21T10:19:43.172Z,1016.72
2019-01-21T10:20:43.166Z,1016.75
2019-01-21T10:21:43.151Z,1016.68
2019-01-21T10:22:43.172Z,1016.70
2019-01-21T10:23:43.130Z,1016.70
2019-01-21T10:24:43.114Z,1016.68
2019-01-21T10:25:43.108Z,1016.67
2019-01-21T10:26:43.093Z,1016.66
2019-01-21T10:27:43.088Z,1016.54
2019-01-21T10:28:43.078Z,1016.56
2019-01-21T10:29:43.070Z,1016.59
2019-01-21T10:30:43.052Z,1016.57
2019-01-21T10:31:43.040Z,1016.60
2019-01-21T10:32:43.034Z,1016.58
2019-01-21T10:33:43.024Z,1016.60
2019-01-21T10:34:43.010Z,1016.56
2019-01-21T10:35:43.005Z,1016.63
2019-01-21T10:36:42.992Z,1016.46
2019-01-21T10:37:42.988Z,1016.47
2019-01-21T10:38:42.974Z,1016.44
2019-01-21T10:39:42.968Z,1016.41
2019-01-21T10:40:42.952Z,1016.43
2019-01-21T10:41:42.967Z,1016.41
2019-01-21T10:42:42.928Z,1016.43
2019-01-21T10:43:42.920Z,1016.48
2019-01-21T10:44:42.913Z,1016.46
2019-01-21T10:45:42.915Z,1016.41
2019-01-21T10:46:42.884Z,1016.39
2019-01-21T10:47:42.877Z,1016.40
2019-01-21T10:48:42.862Z,1016.33
2019-01-21T10:49:42.853Z,1016.37
2019-01-21T10:50:42.843Z,1016.32
2019-01-21T10:51:42.842Z,1016.28
2019-01-21T10:52:42.836Z,1016.32
2019-01-21T10:53:42.813Z,1016.32
2019-01-21T10:54:42.810Z,1016.34
2019-01-21T10:55:42.792Z,1016.30
2019-01-21T10:56:42.785Z,1016.27
2019-01-21T10:57:42.773Z,1016.27
2019-01-21T10:58:42.768Z,1016.21
2019-01-21T10:59:42.755Z,1016.19
2019-01-21T11:00:42.747Z,1016.21
2019-01-21T11:01:42.731Z,1016.16
2019-01-21T11:02:42.722Z,1016.13
2019-01-21T11:03:42.715Z,1016.07
2019-01-21T11:04:42.700Z,1016.06
2019-01-21T11:05:42.686Z,1016.08
2019-01-21T11:06:42.677Z,1016.08
2019-01-21T11:07:42.668Z,1016.06
2019-01-21T11:08:42.659Z,1016.08
2019-01-21T11:09:42.645Z,1016.13
2019-01-21T11:10:42.650Z,1016.06
2019-01-21T11:11:42.632Z,1016.06
2019-01-21T11:12:42.617Z,1016.07
2019-01-21T11:13:42.610Z,1016.04
2019-01-21T11:14:42.595Z,1016.05
2019-01-21T11:15:42.584Z,1015.97
2019-01-21T11:16:42.577Z,1016.01
2019-01-21T11:17:42.559Z,1016.00
2019-01-21T11:18:42.587Z,1015.94
2019-01-21T11:19:42.554Z,1015.92
2019-01-21T11:20:42.532Z,1015.88
2019-01-21T11:21:42.519Z,1015.92
2019-01-21T11:22:42.511Z,1015.89
2019-01-21T11:23:42.531Z,1015.89
2019-01-21T11:24:42.493Z,1015.86
2019-01-21T11:25:42.487Z,1015.81
2019-01-21T11:26:42.476Z,1015.80
2019-01-21T11:27:42.524Z,1015.80
2019-01-21T11:28:42.589Z,1015.78
2019-01-21T11:29:42.445Z,1015.72
2019-01-21T11:30:42.456Z,1015.71
2019-01-21T11:31:42.451Z,1015.73
2019-01-21T11:32:42.414Z,1015.73
2019-01-21T11:33:42.400Z,1015.72
2019-01-21T11:34:42.388Z,1015.71
2019-01-21T11:35:42.376Z,1015.69
2019-01-21T11:36:42.371Z,1015.72
2019-01-21T11:37:42.353Z,1015.73
2019-01-21T11:38:42.352Z,1015.71
2019-01-21T11:39:42.336Z,1015.76
2019-01-21T11:40:42.327Z,1015.76
2019-01-21T11:41:42.312Z,1015.70
2019-01-21T11:42:42.328Z,1015.72
2019-01-21T11:43:42.289Z,1015.76
2019-01-21T11:44:42.280Z,1015.72
2019-01-21T11:45:42.270Z,1015.81
2019-01-21T11:46:42.286Z,1015.69
2019-01-21T11:47:42.254Z,1015.72
2019-01-21T11:48:43.200Z,1015.76
2019-01-21T11:49:42.413Z,1015.78
2019-01-21T11:50:42.229Z,1015.78
2019-01-21T11:51:42.213Z,1015.79
2019-01-21T11:52:42.211Z,1015.81
2019-01-21T11:53:42.185Z,1015.77
2019-01-21T11:54:42.181Z,1015.79
2019-01-21T11:55:42.207Z,1015.80
2019-01-21T11:56:42.168Z,1015.71
2019-01-21T11:57:42.150Z,1015.71
2019-01-21T11:58:42.149Z,1015.77
2019-01-21T11:59:43.129Z,1015.71
2019-01-21T12:00:42.133Z,1015.78
2019-01-21T12:01:42.107Z,1015.79
2019-01-21T12:02:42.773Z,1015.78
2019-01-21T12:03:42.083Z,1015.72
2019-01-21T12:04:42.078Z,1015.69
2019-01-21T12:05:42.061Z,1015.67